sensor_id;sensor_type;location;lat;lon;timestamp;P1;durP1;ratioP1;P2;durP2;ratioP2
66371;SDS011;53168;51.146;17.120;2023-09-30T00:11:17;15.24;;;15.24;;
66371;SDS011;53168;51.146;17.120;2023-09-30T00:14:08;15.20;;;15.20;;
66371;SDS011;53168;51.146;17.120;2023-09-30T00:39:45;15.40;;;15.39;;
66371;SDS011;53168;51.146;17.120;2023-09-30T00:45:57;15.42;;;15.40;;
66371;SDS011;53168;51.146;17.120;2023-09-30T00:49:55;15.45;;;15.45;;
66371;SDS011;53168;51.146;17.120;2023-09-30T00:53:25;15.83;;;15.82;;
66371;SDS011;53168;51.146;17.120;2023-09-30T00:55:56;16.07;;;16.04;;
66371;SDS011;53168;51.146;17.120;2023-09-30T00:58:30;16.36;;;16.33;;
66371;SDS011;53168;51.146;17.120;2023-09-30T01:01:02;16.34;;;16.34;;
66371;SDS011;53168;51.146;17.120;2023-09-30T01:03:41;16.25;;;16.25;;
66371;SDS011;53168;51.146;17.120;2023-09-30T01:06:20;15.69;;;15.69;;
66371;SDS011;53168;51.146;17.120;2023-09-30T01:08:52;16.23;;;16.22;;
66371;SDS011;53168;51.146;17.120;2023-09-30T01:11:40;15.35;;;15.35;;
66371;SDS011;53168;51.146;17.120;2023-09-30T01:17:54;15.79;;;15.66;;
66371;SDS011;53168;51.146;17.120;2023-09-30T01:21:13;16.00;;;16.00;;
66371;SDS011;53168;51.146;17.120;2023-09-30T01:24:17;15.93;;;15.93;;
66371;SDS011;53168;51.146;17.120;2023-09-30T01:26:48;15.21;;;15.21;;
66371;SDS011;53168;51.146;17.120;2023-09-30T01:29:19;15.55;;;15.49;;
66371;SDS011;53168;51.146;17.120;2023-09-30T01:32:07;15.35;;;15.32;;
66371;SDS011;53168;51.146;17.120;2023-09-30T01:34:37;15.26;;;15.26;;
66371;SDS011;53168;51.146;17.120;2023-09-30T01:37:07;15.40;;;15.40;;
66371;SDS011;53168;51.146;17.120;2023-09-30T01:39:39;14.79;;;14.78;;
66371;SDS011;53168;51.146;17.120;2023-09-30T01:42:40;14.50;;;14.50;;
66371;SDS011;53168;51.146;17.120;2023-09-30T01:45:10;13.36;;;13.35;;
66371;SDS011;53168;51.146;17.120;2023-09-30T01:47:43;12.66;;;12.66;;
66371;SDS011;53168;51.146;17.120;2023-09-30T01:50:18;12.39;;;12.39;;
66371;SDS011;53168;51.146;17.120;2023-09-30T01:53:03;13.76;;;13.76;;
66371;SDS011;53168;51.146;17.120;2023-09-30T01:56:05;12.89;;;12.88;;
66371;SDS011;53168;51.146;17.120;2023-09-30T02:02:20;11.84;;;11.84;;
66371;SDS011;53168;51.146;17.120;2023-09-30T02:04:58;10.33;;;10.33;;
66371;SDS011;53168;51.146;17.120;2023-09-30T02:07:43;9.84;;;9.84;;
66371;SDS011;53168;51.146;17.120;2023-09-30T02:10:28;10.34;;;10.34;;
66371;SDS011;53168;51.146;17.120;2023-09-30T02:19:40;10.52;;;10.52;;
66371;SDS011;53168;51.146;17.120;2023-09-30T02:22:32;10.52;;;10.52;;
66371;SDS011;53168;51.146;17.120;2023-09-30T02:25:03;9.85;;;9.85;;
66371;SDS011;53168;51.146;17.120;2023-09-30T02:27:55;9.61;;;9.60;;
66371;SDS011;53168;51.146;17.120;2023-09-30T02:33:26;9.38;;;9.38;;
66371;SDS011;53168;51.146;17.120;2023-09-30T02:36:03;9.11;;;9.10;;
66371;SDS011;53168;51.146;17.120;2023-09-30T02:38:38;9.80;;;9.80;;
66371;SDS011;53168;51.146;17.120;2023-09-30T02:41:28;9.96;;;9.96;;
66371;SDS011;53168;51.146;17.120;2023-09-30T02:47:11;9.47;;;9.47;;
66371;SDS011;53168;51.146;17.120;2023-09-30T03:10:55;8.58;;;8.58;;
66371;SDS011;53168;51.146;17.120;2023-09-30T03:13:29;8.32;;;8.32;;
66371;SDS011;53168;51.146;17.120;2023-09-30T03:16:08;8.65;;;8.65;;
66371;SDS011;53168;51.146;17.120;2023-09-30T03:18:46;8.81;;;8.81;;
66371;SDS011;53168;51.146;17.120;2023-09-30T03:21:20;8.93;;;8.93;;
66371;SDS011;53168;51.146;17.120;2023-09-30T03:23:54;9.17;;;9.17;;
66371;SDS011;53168;51.146;17.120;2023-09-30T03:26:29;9.05;;;9.05;;
66371;SDS011;53168;51.146;17.120;2023-09-30T03:29:03;8.77;;;8.77;;
66371;SDS011;53168;51.146;17.120;2023-09-30T03:31:38;8.68;;;8.68;;
66371;SDS011;53168;51.146;17.120;2023-09-30T03:34:14;8.71;;;8.71;;
66371;SDS011;53168;51.146;17.120;2023-09-30T03:36:55;8.93;;;8.93;;
66371;SDS011;53168;51.146;17.120;2023-09-30T03:39:29;8.25;;;8.25;;
66371;SDS011;53168;51.146;17.120;2023-09-30T03:42:58;8.91;;;8.91;;
66371;SDS011;53168;51.146;17.120;2023-09-30T03:50:21;8.27;;;8.27;;
66371;SDS011;53168;51.146;17.120;2023-09-30T03:56:14;8.47;;;8.47;;
66371;SDS011;53168;51.146;17.120;2023-09-30T03:58:52;8.11;;;8.11;;
66371;SDS011;53168;51.146;17.120;2023-09-30T04:01:31;7.88;;;7.83;;
66371;SDS011;53168;51.146;17.120;2023-09-30T04:19:47;9.04;;;9.04;;
66371;SDS011;53168;51.146;17.120;2023-09-30T04:23:29;8.38;;;8.38;;
66371;SDS011;53168;51.146;17.120;2023-09-30T04:27:31;8.55;;;8.55;;
66371;SDS011;53168;51.146;17.120;2023-09-30T04:30:33;8.19;;;8.19;;
66371;SDS011;53168;51.146;17.120;2023-09-30T04:33:54;8.90;;;8.90;;
66371;SDS011;53168;51.146;17.120;2023-09-30T04:36:36;8.71;;;8.71;;
66371;SDS011;53168;51.146;17.120;2023-09-30T04:39:39;8.92;;;8.92;;
66371;SDS011;53168;51.146;17.120;2023-09-30T04:42:23;7.94;;;7.94;;
66371;SDS011;53168;51.146;17.120;2023-09-30T04:44:57;8.78;;;8.78;;
66371;SDS011;53168;51.146;17.120;2023-09-30T04:47:31;8.82;;;8.82;;
66371;SDS011;53168;51.146;17.120;2023-09-30T04:50:07;8.68;;;8.68;;
66371;SDS011;53168;51.146;17.120;2023-09-30T04:52:46;9.09;;;9.09;;
66371;SDS011;53168;51.146;17.120;2023-09-30T04:55:20;8.83;;;8.83;;
66371;SDS011;53168;51.146;17.120;2023-09-30T04:57:55;8.40;;;8.40;;
66371;SDS011;53168;51.146;17.120;2023-09-30T05:00:33;8.65;;;8.65;;
66371;SDS011;53168;51.146;17.120;2023-09-30T05:21:33;8.69;;;8.67;;
66371;SDS011;53168;51.146;17.120;2023-09-30T05:24:05;8.18;;;8.17;;
66371;SDS011;53168;51.146;17.120;2023-09-30T05:26:45;8.36;;;8.36;;
66371;SDS011;53168;51.146;17.120;2023-09-30T05:29:37;8.96;;;8.96;;
66371;SDS011;53168;51.146;17.120;2023-09-30T05:32:24;8.53;;;8.53;;
66371;SDS011;53168;51.146;17.120;2023-09-30T05:34:55;8.27;;;8.27;;
66371;SDS011;53168;51.146;17.120;2023-09-30T05:37:26;8.12;;;8.12;;
66371;SDS011;53168;51.146;17.120;2023-09-30T05:40:33;8.21;;;8.21;;
66371;SDS011;53168;51.146;17.120;2023-09-30T05:43:27;8.38;;;8.38;;
66371;SDS011;53168;51.146;17.120;2023-09-30T05:45:59;7.92;;;7.92;;
66371;SDS011;53168;51.146;17.120;2023-09-30T05:48:30;8.33;;;8.33;;
66371;SDS011;53168;51.146;17.120;2023-09-30T05:50:59;7.72;;;7.72;;
66371;SDS011;53168;51.146;17.120;2023-09-30T05:53:32;8.34;;;8.34;;
66371;SDS011;53168;51.146;17.120;2023-09-30T05:56:17;7.94;;;7.94;;
66371;SDS011;53168;51.146;17.120;2023-09-30T05:58:48;7.18;;;7.18;;
66371;SDS011;53168;51.146;17.120;2023-09-30T06:01:18;7.34;;;7.34;;
66371;SDS011;53168;51.146;17.120;2023-09-30T06:04:31;7.97;;;7.97;;
66371;SDS011;53168;51.146;17.120;2023-09-30T06:07:10;7.73;;;7.73;;
66371;SDS011;53168;51.146;17.120;2023-09-30T06:09:40;8.53;;;8.53;;
66371;SDS011;53168;51.146;17.120;2023-09-30T06:12:25;7.84;;;7.84;;
66371;SDS011;53168;51.146;17.120;2023-09-30T06:15:01;8.23;;;8.23;;
66371;SDS011;53168;51.146;17.120;2023-09-30T06:17:33;7.33;;;7.33;;
66371;SDS011;53168;51.146;17.120;2023-09-30T06:20:05;7.25;;;7.25;;
66371;SDS011;53168;51.146;17.120;2023-09-30T06:22:43;6.31;;;6.31;;
66371;SDS011;53168;51.146;17.120;2023-09-30T06:25:17;5.29;;;5.29;;
66371;SDS011;53168;51.146;17.120;2023-09-30T06:27:49;4.32;;;4.32;;
66371;SDS011;53168;51.146;17.120;2023-09-30T06:30:20;3.81;;;3.81;;
66371;SDS011;53168;51.146;17.120;2023-09-30T06:32:57;3.44;;;3.44;;
66371;SDS011;53168;51.146;17.120;2023-09-30T06:35:27;3.07;;;3.07;;
66371;SDS011;53168;51.146;17.120;2023-09-30T06:37:57;2.96;;;2.96;;
66371;SDS011;53168;51.146;17.120;2023-09-30T06:40:28;2.86;;;2.86;;
66371;SDS011;53168;51.146;17.120;2023-09-30T06:42:58;2.61;;;2.61;;
66371;SDS011;53168;51.146;17.120;2023-09-30T06:45:28;2.24;;;2.24;;
66371;SDS011;53168;51.146;17.120;2023-09-30T06:48:00;2.33;;;2.33;;
66371;SDS011;53168;51.146;17.120;2023-09-30T06:50:31;2.23;;;2.23;;
66371;SDS011;53168;51.146;17.120;2023-09-30T06:53:00;2.20;;;2.18;;
66371;SDS011;53168;51.146;17.120;2023-09-30T06:55:32;2.11;;;2.08;;
66371;SDS011;53168;51.146;17.120;2023-09-30T06:58:04;2.09;;;2.03;;
66371;SDS011;53168;51.146;17.120;2023-09-30T07:00:36;2.44;;;2.39;;
66371;SDS011;53168;51.146;17.120;2023-09-30T07:03:06;2.57;;;2.53;;
66371;SDS011;53168;51.146;17.120;2023-09-30T07:05:36;2.54;;;2.52;;
66371;SDS011;53168;51.146;17.120;2023-09-30T07:08:08;2.45;;;2.41;;
66371;SDS011;53168;51.146;17.120;2023-09-30T07:10:38;2.34;;;2.33;;
66371;SDS011;53168;51.146;17.120;2023-09-30T07:13:08;2.49;;;2.49;;
66371;SDS011;53168;51.146;17.120;2023-09-30T07:15:39;3.05;;;3.05;;
66371;SDS011;53168;51.146;17.120;2023-09-30T07:18:09;3.18;;;3.17;;
66371;SDS011;53168;51.146;17.120;2023-09-30T07:20:40;3.20;;;3.18;;
66371;SDS011;53168;51.146;17.120;2023-09-30T07:23:19;3.22;;;3.20;;
66371;SDS011;53168;51.146;17.120;2023-09-30T07:25:53;2.99;;;2.99;;
66371;SDS011;53168;51.146;17.120;2023-09-30T07:28:30;2.92;;;2.92;;
66371;SDS011;53168;51.146;17.120;2023-09-30T07:31:03;3.56;;;3.56;;
66371;SDS011;53168;51.146;17.120;2023-09-30T07:33:49;4.69;;;4.69;;
66371;SDS011;53168;51.146;17.120;2023-09-30T07:36:25;5.09;;;5.09;;
66371;SDS011;53168;51.146;17.120;2023-09-30T07:39:04;5.55;;;5.55;;
66371;SDS011;53168;51.146;17.120;2023-09-30T07:41:39;5.39;;;5.39;;
66371;SDS011;53168;51.146;17.120;2023-09-30T07:44:18;5.81;;;5.77;;
66371;SDS011;53168;51.146;17.120;2023-09-30T07:46:49;5.84;;;5.84;;
66371;SDS011;53168;51.146;17.120;2023-09-30T07:49:21;6.26;;;6.26;;
66371;SDS011;53168;51.146;17.120;2023-09-30T07:51:51;5.87;;;5.87;;
66371;SDS011;53168;51.146;17.120;2023-09-30T07:54:23;5.57;;;5.57;;
66371;SDS011;53168;51.146;17.120;2023-09-30T07:56:59;5.06;;;5.06;;
66371;SDS011;53168;51.146;17.120;2023-09-30T07:59:29;5.06;;;5.06;;
66371;SDS011;53168;51.146;17.120;2023-09-30T08:02:01;4.80;;;4.80;;
66371;SDS011;53168;51.146;17.120;2023-09-30T08:04:32;3.41;;;3.41;;
66371;SDS011;53168;51.146;17.120;2023-09-30T08:09:53;3.30;;;3.30;;
66371;SDS011;53168;51.146;17.120;2023-09-30T08:12:39;3.07;;;3.02;;
66371;SDS011;53168;51.146;17.120;2023-09-30T08:15:10;2.99;;;2.92;;
66371;SDS011;53168;51.146;17.120;2023-09-30T08:17:57;3.27;;;3.15;;
66371;SDS011;53168;51.146;17.120;2023-09-30T08:20:38;3.25;;;3.11;;
66371;SDS011;53168;51.146;17.120;2023-09-30T08:27:11;2.99;;;2.96;;
66371;SDS011;53168;51.146;17.120;2023-09-30T08:30:21;3.09;;;3.06;;
66371;SDS011;53168;51.146;17.120;2023-09-30T08:33:36;3.25;;;3.15;;
66371;SDS011;53168;51.146;17.120;2023-09-30T08:36:08;2.91;;;2.78;;
66371;SDS011;53168;51.146;17.120;2023-09-30T08:38:39;3.57;;;3.45;;
66371;SDS011;53168;51.146;17.120;2023-09-30T08:41:09;3.04;;;2.99;;
66371;SDS011;53168;51.146;17.120;2023-09-30T08:43:53;3.29;;;3.22;;
66371;SDS011;53168;51.146;17.120;2023-09-30T08:46:31;3.33;;;3.29;;
66371;SDS011;53168;51.146;17.120;2023-09-30T08:49:03;3.33;;;3.29;;
66371;SDS011;53168;51.146;17.120;2023-09-30T08:51:35;3.42;;;3.38;;
66371;SDS011;53168;51.146;17.120;2023-09-30T08:54:10;3.50;;;3.49;;
66371;SDS011;53168;51.146;17.120;2023-09-30T08:56:40;3.67;;;3.67;;
66371;SDS011;53168;51.146;17.120;2023-09-30T08:59:17;3.81;;;3.81;;
66371;SDS011;53168;51.146;17.120;2023-09-30T09:01:47;4.11;;;4.11;;
66371;SDS011;53168;51.146;17.120;2023-09-30T09:04:17;4.04;;;4.04;;
66371;SDS011;53168;51.146;17.120;2023-09-30T09:06:48;3.90;;;3.90;;
66371;SDS011;53168;51.146;17.120;2023-09-30T09:09:18;4.05;;;4.05;;
66371;SDS011;53168;51.146;17.120;2023-09-30T09:11:49;3.63;;;3.63;;
66371;SDS011;53168;51.146;17.120;2023-09-30T09:14:19;3.32;;;3.32;;
66371;SDS011;53168;51.146;17.120;2023-09-30T09:17:07;3.41;;;3.40;;
66371;SDS011;53168;51.146;17.120;2023-09-30T09:19:39;3.60;;;3.60;;
66371;SDS011;53168;51.146;17.120;2023-09-30T09:22:09;3.57;;;3.57;;
66371;SDS011;53168;51.146;17.120;2023-09-30T09:24:39;3.13;;;3.12;;
66371;SDS011;53168;51.146;17.120;2023-09-30T09:27:10;3.29;;;3.28;;
66371;SDS011;53168;51.146;17.120;2023-09-30T09:29:43;2.80;;;2.80;;
66371;SDS011;53168;51.146;17.120;2023-09-30T09:32:14;2.79;;;2.78;;
66371;SDS011;53168;51.146;17.120;2023-09-30T09:34:45;2.93;;;2.87;;
66371;SDS011;53168;51.146;17.120;2023-09-30T09:37:38;2.68;;;2.61;;
66371;SDS011;53168;51.146;17.120;2023-09-30T09:40:10;2.72;;;2.63;;
66371;SDS011;53168;51.146;17.120;2023-09-30T09:42:42;2.52;;;2.42;;
66371;SDS011;53168;51.146;17.120;2023-09-30T09:45:12;2.74;;;2.63;;
66371;SDS011;53168;51.146;17.120;2023-09-30T09:47:43;3.09;;;2.91;;
66371;SDS011;53168;51.146;17.120;2023-09-30T09:50:14;2.56;;;2.43;;
66371;SDS011;53168;51.146;17.120;2023-09-30T09:52:47;2.77;;;2.63;;
66371;SDS011;53168;51.146;17.120;2023-09-30T09:55:21;2.50;;;2.36;;
66371;SDS011;53168;51.146;17.120;2023-09-30T09:57:52;2.65;;;2.48;;
66371;SDS011;53168;51.146;17.120;2023-09-30T10:00:25;3.01;;;2.76;;
66371;SDS011;53168;51.146;17.120;2023-09-30T10:02:57;3.09;;;2.78;;
66371;SDS011;53168;51.146;17.120;2023-09-30T10:05:27;2.70;;;2.43;;
66371;SDS011;53168;51.146;17.120;2023-09-30T10:08:01;2.93;;;2.61;;
66371;SDS011;53168;51.146;17.120;2023-09-30T10:10:36;2.64;;;2.35;;
66371;SDS011;53168;51.146;17.120;2023-09-30T10:19:20;3.14;;;2.84;;
66371;SDS011;53168;51.146;17.120;2023-09-30T10:24:57;2.74;;;2.48;;
66371;SDS011;53168;51.146;17.120;2023-09-30T10:27:48;2.68;;;2.46;;
66371;SDS011;53168;51.146;17.120;2023-09-30T10:30:17;2.70;;;2.46;;
66371;SDS011;53168;51.146;17.120;2023-09-30T10:33:11;2.79;;;2.54;;
66371;SDS011;53168;51.146;17.120;2023-09-30T10:35:48;2.77;;;2.44;;
66371;SDS011;53168;51.146;17.120;2023-09-30T10:38:38;2.88;;;2.53;;
66371;SDS011;53168;51.146;17.120;2023-09-30T10:41:09;2.76;;;2.40;;
66371;SDS011;53168;51.146;17.120;2023-09-30T10:44:33;2.41;;;2.12;;
66371;SDS011;53168;51.146;17.120;2023-09-30T10:50:05;2.56;;;2.26;;
66371;SDS011;53168;51.146;17.120;2023-09-30T10:53:22;2.62;;;2.31;;
66371;SDS011;53168;51.146;17.120;2023-09-30T10:55:54;2.94;;;2.65;;
66371;SDS011;53168;51.146;17.120;2023-09-30T10:58:39;2.80;;;2.60;;
66371;SDS011;53168;51.146;17.120;2023-09-30T11:01:13;2.40;;;2.22;;
66371;SDS011;53168;51.146;17.120;2023-09-30T11:03:46;2.79;;;2.55;;
66371;SDS011;53168;51.146;17.120;2023-09-30T11:06:20;2.97;;;2.67;;
66371;SDS011;53168;51.146;17.120;2023-09-30T12:05:52;3.48;;;3.01;;
66371;SDS011;53168;51.146;17.120;2023-09-30T12:08:29;3.40;;;2.97;;
66371;SDS011;53168;51.146;17.120;2023-09-30T12:10:59;3.42;;;2.97;;
66371;SDS011;53168;51.146;17.120;2023-09-30T12:13:44;3.19;;;2.82;;
66371;SDS011;53168;51.146;17.120;2023-09-30T12:16:28;3.01;;;2.66;;
66371;SDS011;53168;51.146;17.120;2023-09-30T12:19:32;3.68;;;3.20;;
66371;SDS011;53168;51.146;17.120;2023-09-30T12:22:19;3.33;;;2.91;;
66371;SDS011;53168;51.146;17.120;2023-09-30T12:24:54;2.94;;;2.64;;
66371;SDS011;53168;51.146;17.120;2023-09-30T12:27:29;3.05;;;2.73;;
66371;SDS011;53168;51.146;17.120;2023-09-30T12:30:04;3.00;;;2.67;;
66371;SDS011;53168;51.146;17.120;2023-09-30T12:32:48;2.75;;;2.47;;
66371;SDS011;53168;51.146;17.120;2023-09-30T12:35:32;2.87;;;2.62;;
66371;SDS011;53168;51.146;17.120;2023-09-30T12:38:16;2.69;;;2.48;;
66371;SDS011;53168;51.146;17.120;2023-09-30T12:40:48;2.83;;;2.65;;
66371;SDS011;53168;51.146;17.120;2023-09-30T12:43:18;2.90;;;2.66;;
66371;SDS011;53168;51.146;17.120;2023-09-30T12:45:47;2.69;;;2.44;;
66371;SDS011;53168;51.146;17.120;2023-09-30T12:48:19;2.60;;;2.35;;
66371;SDS011;53168;51.146;17.120;2023-09-30T12:50:48;2.63;;;2.38;;
66371;SDS011;53168;51.146;17.120;2023-09-30T12:53:18;3.31;;;2.94;;
66371;SDS011;53168;51.146;17.120;2023-09-30T12:55:47;2.71;;;2.37;;
66371;SDS011;53168;51.146;17.120;2023-09-30T12:58:17;2.76;;;2.44;;
66371;SDS011;53168;51.146;17.120;2023-09-30T13:00:47;2.83;;;2.50;;
66371;SDS011;53168;51.146;17.120;2023-09-30T13:03:16;2.78;;;2.47;;
66371;SDS011;53168;51.146;17.120;2023-09-30T13:05:49;2.84;;;2.52;;
66371;SDS011;53168;51.146;17.120;2023-09-30T13:08:19;2.85;;;2.52;;
66371;SDS011;53168;51.146;17.120;2023-09-30T13:10:48;2.82;;;2.45;;
66371;SDS011;53168;51.146;17.120;2023-09-30T13:13:19;2.94;;;2.56;;
66371;SDS011;53168;51.146;17.120;2023-09-30T13:15:50;3.04;;;2.59;;
66371;SDS011;53168;51.146;17.120;2023-09-30T13:18:20;2.96;;;2.47;;
66371;SDS011;53168;51.146;17.120;2023-09-30T13:20:49;2.98;;;2.57;;
66371;SDS011;53168;51.146;17.120;2023-09-30T13:23:22;2.90;;;2.54;;
66371;SDS011;53168;51.146;17.120;2023-09-30T13:25:53;2.87;;;2.58;;
66371;SDS011;53168;51.146;17.120;2023-09-30T13:28:23;4.12;;;3.77;;
66371;SDS011;53168;51.146;17.120;2023-09-30T13:30:55;5.43;;;5.05;;
66371;SDS011;53168;51.146;17.120;2023-09-30T13:33:25;3.11;;;2.86;;
66371;SDS011;53168;51.146;17.120;2023-09-30T13:35:57;3.11;;;2.83;;
66371;SDS011;53168;51.146;17.120;2023-09-30T13:38:28;2.73;;;2.54;;
66371;SDS011;53168;51.146;17.120;2023-09-30T13:40:57;3.13;;;2.89;;
66371;SDS011;53168;51.146;17.120;2023-09-30T13:43:27;2.92;;;2.67;;
66371;SDS011;53168;51.146;17.120;2023-09-30T13:45:57;3.06;;;2.83;;
66371;SDS011;53168;51.146;17.120;2023-09-30T13:48:33;3.02;;;2.82;;
66371;SDS011;53168;51.146;17.120;2023-09-30T13:51:04;3.26;;;3.02;;
66371;SDS011;53168;51.146;17.120;2023-09-30T13:53:35;3.46;;;3.14;;
66371;SDS011;53168;51.146;17.120;2023-09-30T13:59:23;3.38;;;3.08;;
66371;SDS011;53168;51.146;17.120;2023-09-30T14:01:52;2.99;;;2.73;;
66371;SDS011;53168;51.146;17.120;2023-09-30T14:04:22;3.19;;;2.96;;
66371;SDS011;53168;51.146;17.120;2023-09-30T14:06:52;3.92;;;3.72;;
66371;SDS011;53168;51.146;17.120;2023-09-30T14:09:24;3.71;;;3.45;;
66371;SDS011;53168;51.146;17.120;2023-09-30T14:12:03;3.49;;;3.20;;
66371;SDS011;53168;51.146;17.120;2023-09-30T14:14:33;3.21;;;2.94;;
66371;SDS011;53168;51.146;17.120;2023-09-30T14:17:09;3.28;;;3.04;;
66371;SDS011;53168;51.146;17.120;2023-09-30T14:19:48;2.97;;;2.76;;
66371;SDS011;53168;51.146;17.120;2023-09-30T14:22:27;2.80;;;2.59;;
66371;SDS011;53168;51.146;17.120;2023-09-30T14:28:04;2.98;;;2.73;;
66371;SDS011;53168;51.146;17.120;2023-09-30T14:30:55;3.63;;;3.26;;
66371;SDS011;53168;51.146;17.120;2023-09-30T14:33:47;3.95;;;3.51;;
66371;SDS011;53168;51.146;17.120;2023-09-30T14:36:28;3.23;;;2.83;;
66371;SDS011;53168;51.146;17.120;2023-09-30T14:42:27;2.32;;;2.08;;
66371;SDS011;53168;51.146;17.120;2023-09-30T14:45:01;2.34;;;2.10;;
66371;SDS011;53168;51.146;17.120;2023-09-30T14:51:51;2.94;;;2.56;;
66371;SDS011;53168;51.146;17.120;2023-09-30T14:58:48;2.96;;;2.58;;
66371;SDS011;53168;51.146;17.120;2023-09-30T15:01:20;2.99;;;2.66;;
66371;SDS011;53168;51.146;17.120;2023-09-30T15:03:52;3.16;;;2.88;;
66371;SDS011;53168;51.146;17.120;2023-09-30T15:06:22;2.84;;;2.56;;
66371;SDS011;53168;51.146;17.120;2023-09-30T15:08:52;2.73;;;2.42;;
66371;SDS011;53168;51.146;17.120;2023-09-30T15:11:23;2.87;;;2.58;;
66371;SDS011;53168;51.146;17.120;2023-09-30T15:13:53;2.81;;;2.51;;
66371;SDS011;53168;51.146;17.120;2023-09-30T15:19:33;2.82;;;2.49;;
66371;SDS011;53168;51.146;17.120;2023-09-30T15:22:05;2.74;;;2.40;;
66371;SDS011;53168;51.146;17.120;2023-09-30T15:24:42;2.78;;;2.40;;
66371;SDS011;53168;51.146;17.120;2023-09-30T15:30:06;2.72;;;2.36;;
66371;SDS011;53168;51.146;17.120;2023-09-30T15:33:11;3.02;;;2.66;;
66371;SDS011;53168;51.146;17.120;2023-09-30T15:35:42;3.29;;;2.86;;
66371;SDS011;53168;51.146;17.120;2023-09-30T15:41:41;2.80;;;2.43;;
66371;SDS011;53168;51.146;17.120;2023-09-30T15:44:11;3.39;;;2.91;;
66371;SDS011;53168;51.146;17.120;2023-09-30T15:46:43;2.77;;;2.43;;
66371;SDS011;53168;51.146;17.120;2023-09-30T15:49:14;2.77;;;2.45;;
66371;SDS011;53168;51.146;17.120;2023-09-30T15:51:53;3.23;;;2.82;;
66371;SDS011;53168;51.146;17.120;2023-09-30T15:54:25;3.39;;;2.86;;
66371;SDS011;53168;51.146;17.120;2023-09-30T15:56:55;3.32;;;2.82;;
66371;SDS011;53168;51.146;17.120;2023-09-30T15:59:28;2.91;;;2.56;;
66371;SDS011;53168;51.146;17.120;2023-09-30T16:02:00;3.13;;;2.71;;
66371;SDS011;53168;51.146;17.120;2023-09-30T16:04:32;3.57;;;3.09;;
66371;SDS011;53168;51.146;17.120;2023-09-30T16:09:54;4.25;;;3.67;;
66371;SDS011;53168;51.146;17.120;2023-09-30T16:12:26;4.51;;;3.95;;
66371;SDS011;53168;51.146;17.120;2023-09-30T16:14:58;3.93;;;3.59;;
66371;SDS011;53168;51.146;17.120;2023-09-30T16:17:33;4.26;;;3.91;;
66371;SDS011;53168;51.146;17.120;2023-09-30T16:20:07;4.23;;;3.83;;
66371;SDS011;53168;51.146;17.120;2023-09-30T16:23:15;3.65;;;3.30;;
66371;SDS011;53168;51.146;17.120;2023-09-30T16:25:51;3.94;;;3.61;;
66371;SDS011;53168;51.146;17.120;2023-09-30T16:28:24;4.27;;;3.89;;
66371;SDS011;53168;51.146;17.120;2023-09-30T16:31:00;3.83;;;3.49;;
66371;SDS011;53168;51.146;17.120;2023-09-30T16:33:34;4.06;;;3.73;;
66371;SDS011;53168;51.146;17.120;2023-09-30T16:36:04;4.68;;;4.29;;
66371;SDS011;53168;51.146;17.120;2023-09-30T16:39:03;4.70;;;4.22;;
66371;SDS011;53168;51.146;17.120;2023-09-30T16:41:37;5.23;;;4.57;;
66371;SDS011;53168;51.146;17.120;2023-09-30T16:44:28;4.77;;;4.32;;
66371;SDS011;53168;51.146;17.120;2023-09-30T16:46:59;4.74;;;4.36;;
66371;SDS011;53168;51.146;17.120;2023-09-30T16:49:30;5.02;;;4.48;;
66371;SDS011;53168;51.146;17.120;2023-09-30T16:52:02;4.76;;;4.32;;
66371;SDS011;53168;51.146;17.120;2023-09-30T16:54:32;4.90;;;4.47;;
66371;SDS011;53168;51.146;17.120;2023-09-30T16:57:02;3.91;;;3.63;;
66371;SDS011;53168;51.146;17.120;2023-09-30T16:59:34;3.87;;;3.64;;
66371;SDS011;53168;51.146;17.120;2023-09-30T17:02:04;4.03;;;3.75;;
66371;SDS011;53168;51.146;17.120;2023-09-30T17:04:36;4.56;;;4.33;;
66371;SDS011;53168;51.146;17.120;2023-09-30T17:07:10;4.12;;;3.95;;
66371;SDS011;53168;51.146;17.120;2023-09-30T17:09:41;4.93;;;4.61;;
66371;SDS011;53168;51.146;17.120;2023-09-30T17:12:11;5.05;;;4.68;;
66371;SDS011;53168;51.146;17.120;2023-09-30T17:14:41;6.00;;;5.52;;
66371;SDS011;53168;51.146;17.120;2023-09-30T17:17:11;5.20;;;4.83;;
66371;SDS011;53168;51.146;17.120;2023-09-30T17:22:21;5.52;;;4.98;;
66371;SDS011;53168;51.146;17.120;2023-09-30T17:24:51;6.17;;;5.59;;
66371;SDS011;53168;51.146;17.120;2023-09-30T17:27:21;5.24;;;4.86;;
66371;SDS011;53168;51.146;17.120;2023-09-30T17:29:51;5.28;;;4.89;;
66371;SDS011;53168;51.146;17.120;2023-09-30T17:32:22;5.65;;;5.32;;
66371;SDS011;53168;51.146;17.120;2023-09-30T17:37:46;4.99;;;4.68;;
66371;SDS011;53168;51.146;17.120;2023-09-30T17:40:17;4.40;;;4.21;;
66371;SDS011;53168;51.146;17.120;2023-09-30T17:42:47;5.11;;;4.78;;
66371;SDS011;53168;51.146;17.120;2023-09-30T17:45:17;5.76;;;5.20;;
66371;SDS011;53168;51.146;17.120;2023-09-30T17:47:48;5.60;;;4.94;;
66371;SDS011;53168;51.146;17.120;2023-09-30T17:50:18;5.37;;;4.77;;
66371;SDS011;53168;51.146;17.120;2023-09-30T17:52:52;5.24;;;4.75;;
66371;SDS011;53168;51.146;17.120;2023-09-30T17:55:22;4.69;;;4.30;;
66371;SDS011;53168;51.146;17.120;2023-09-30T17:57:52;4.88;;;4.52;;
66371;SDS011;53168;51.146;17.120;2023-09-30T18:00:24;5.06;;;4.62;;
66371;SDS011;53168;51.146;17.120;2023-09-30T18:02:54;4.90;;;4.50;;
66371;SDS011;53168;51.146;17.120;2023-09-30T18:05:25;5.27;;;4.89;;
66371;SDS011;53168;51.146;17.120;2023-09-30T18:11:25;5.47;;;5.13;;
66371;SDS011;53168;51.146;17.120;2023-09-30T18:14:36;5.04;;;4.74;;
66371;SDS011;53168;51.146;17.120;2023-09-30T18:17:47;5.99;;;5.67;;
66371;SDS011;53168;51.146;17.120;2023-09-30T18:20:38;6.45;;;6.23;;
66371;SDS011;53168;51.146;17.120;2023-09-30T18:23:09;6.43;;;6.19;;
66371;SDS011;53168;51.146;17.120;2023-09-30T18:25:43;6.83;;;6.56;;
66371;SDS011;53168;51.146;17.120;2023-09-30T18:28:15;5.50;;;5.29;;
66371;SDS011;53168;51.146;17.120;2023-09-30T18:30:46;5.04;;;4.87;;
66371;SDS011;53168;51.146;17.120;2023-09-30T18:33:16;6.48;;;6.15;;
66371;SDS011;53168;51.146;17.120;2023-09-30T18:35:46;6.67;;;6.24;;
66371;SDS011;53168;51.146;17.120;2023-09-30T18:38:16;6.31;;;5.91;;
66371;SDS011;53168;51.146;17.120;2023-09-30T18:40:47;5.86;;;5.50;;
66371;SDS011;53168;51.146;17.120;2023-09-30T18:51:07;6.06;;;5.74;;
66371;SDS011;53168;51.146;17.120;2023-09-30T18:58:41;6.50;;;6.22;;
66371;SDS011;53168;51.146;17.120;2023-09-30T19:02:32;6.06;;;5.85;;
66371;SDS011;53168;51.146;17.120;2023-09-30T19:06:01;6.28;;;6.03;;
66371;SDS011;53168;51.146;17.120;2023-09-30T19:09:42;6.10;;;5.96;;
66371;SDS011;53168;51.146;17.120;2023-09-30T19:56:44;8.14;;;7.91;;
66371;SDS011;53168;51.146;17.120;2023-09-30T19:59:21;8.66;;;8.37;;
66371;SDS011;53168;51.146;17.120;2023-09-30T20:02:10;7.57;;;7.44;;
66371;SDS011;53168;51.146;17.120;2023-09-30T20:08:48;7.26;;;7.17;;
66371;SDS011;53168;51.146;17.120;2023-09-30T20:11:25;7.45;;;7.27;;
66371;SDS011;53168;51.146;17.120;2023-09-30T20:14:17;7.30;;;7.26;;
66371;SDS011;53168;51.146;17.120;2023-09-30T20:17:06;7.63;;;7.49;;
66371;SDS011;53168;51.146;17.120;2023-09-30T20:19:41;7.52;;;7.44;;
66371;SDS011;53168;51.146;17.120;2023-09-30T20:22:23;8.23;;;8.09;;
66371;SDS011;53168;51.146;17.120;2023-09-30T20:25:04;8.06;;;7.90;;
66371;SDS011;53168;51.146;17.120;2023-09-30T20:27:40;8.11;;;8.02;;
66371;SDS011;53168;51.146;17.120;2023-09-30T20:30:16;8.54;;;8.25;;